Mermaid Ace — 3FCG3 — position and weather

sailwx.info

Track history (hours):
 
Tides and Currents Weather Stations Pressure Air Temp Water Temp Dewpoint Dewpoint Depression Visibility Wind Speed Wind Dir Waves Ship Positions

Mermaid Ace

Last reported at 2017-Dec-04 10:22 UTC. Time now 2017-Dec-12 02:49 UTC.
Position S 36°50' E 174°46'.

Length 200 m; draft 9.2 m.

Type: Ship. MMSI: 355139000.

Date/timePositionNaut miles runAvg speedWind from/ knotsBaromVisibWave heightAir tempDewpointWater temp
2017-Dec-04 10:22S 36°50' E 174°46'0 0.0
2017-Dec-04 09:58S 36°50' E 174°46'0 0.0
2017-Dec-04 09:28S 36°50' E 174°46'0 0.0
2017-Dec-04 08:58S 36°50' E 174°46'0 0.0
2017-Dec-04 08:28S 36°50' E 174°46'0 0.0
2017-Dec-04 07:58S 36°50' E 174°46'0 0.0
2017-Dec-04 07:28S 36°50' E 174°46'0 0.0
2017-Dec-04 06:58S 36°50' E 174°46'0 0.0
2017-Dec-04 06:28S 36°50' E 174°46'0 0.0
2017-Dec-04 05:58S 36°50' E 174°46'0 0.0
2017-Dec-04 05:28S 36°50' E 174°46'0 0.0
2017-Dec-04 04:58S 36°50' E 174°46'0 0.0
2017-Dec-04 04:28S 36°50' E 174°46'0 0.0
2017-Dec-04 03:52S 36°50' E 174°46'0 0.0
2017-Dec-04 03:28S 36°50' E 174°46'0 0.0
2017-Dec-04 02:58S 36°50' E 174°46'0 0.0
2017-Dec-04 02:22S 36°50' E 174°46'0 0.0
2017-Dec-04 01:58S 36°50' E 174°46'0 0.0
2017-Dec-04 01:28S 36°50' E 174°46'0 0.0
2017-Dec-04 00:58S 36°50' E 174°46'0 0.0
2017-Dec-04 00:28S 36°50' E 174°46'0 0.0
2017-Dec-03 23:58S 36°50' E 174°46'0 0.0
2017-Dec-03 23:22S 36°50' E 174°46'0 0.0
2017-Dec-03 22:58S 36°50' E 174°46'0 0.0
2017-Dec-03 22:28S 36°50' E 174°46'0 0.0
2017-Dec-03 21:58S 36°50' E 174°46'0 0.0
2017-Dec-03 21:28S 36°50' E 174°46'0 0.0
2017-Dec-03 20:58S 36°50' E 174°46'0 0.0
2017-Dec-03 20:28S 36°50' E 174°46'0 0.0
2017-Dec-03 19:58S 36°50' E 174°46'0 0.0
2017-Dec-03 19:28S 36°50' E 174°46'0 0.0
2017-Dec-03 18:58S 36°50' E 174°46'0 0.0
2017-Dec-03 18:28S 36°50' E 174°46'0 0.0
2017-Dec-03 17:58S 36°50' E 174°46'0 0.0
2017-Dec-03 17:28S 36°50' E 174°46'0 0.0
2017-Dec-03 16:58S 36°50' E 174°46'0 0.0
2017-Dec-03 16:30S 36°50' E 174°46'1 2.2
2017-Dec-03 16:00S 36°50' E 174°48'3 6.5
2017-Dec-03 15:30S 36°47' E 174°48'3 7.0
2017-Dec-03 15:00S 36°44' E 174°50'3 5.0
2017-Dec-03 14:30S 36°42' E 174°52'4 7.2
2017-Dec-03 14:00S 36°39' E 174°55'4 7.1
2017-Dec-03 13:30S 36°36' E 174°58'4 8.5
2017-Dec-03 13:00S 36°32' E 174°59'5 9.1
2017-Dec-03 12:30S 36°28' E 174°60'5 9.7
2017-Dec-03 12:00S 36°23' E 174°59'510.0
2017-Dec-03 11:30S 36°18' E 174°58'5 9.9
2017-Dec-03 11:00S 36°13' E 174°56'510.8
2017-Dec-03 10:30S 36°08' E 174°56'  
Track history (hours):
 
Tides and Currents Weather Stations Pressure Air Temp Water Temp Dewpoint Dewpoint Depression Visibility Wind Speed Wind Dir Waves Ship Positions

Mermaid Ace

Last reported at 2017-Dec-04 10:22 UTC. Time now 2017-Dec-12 02:49 UTC.
Position S 36°50' E 174°46'.

Length 200 m; draft 9.2 m.

Type: Ship. MMSI: 355139000.

Date/timePositionNaut miles runAvg speedWind from/ knotsBaromVisibWave heightAir tempDewpointWater temp
2017-Dec-04 10:22S 36°50' E 174°46'0 0.0
2017-Dec-04 09:58S 36°50' E 174°46'0 0.0
2017-Dec-04 09:28S 36°50' E 174°46'0 0.0
2017-Dec-04 08:58S 36°50' E 174°46'0 0.0
2017-Dec-04 08:28S 36°50' E 174°46'0 0.0
2017-Dec-04 07:58S 36°50' E 174°46'0 0.0
2017-Dec-04 07:28S 36°50' E 174°46'0 0.0
2017-Dec-04 06:58S 36°50' E 174°46'0 0.0
2017-Dec-04 06:28S 36°50' E 174°46'0 0.0
2017-Dec-04 05:58S 36°50' E 174°46'0 0.0
2017-Dec-04 05:28S 36°50' E 174°46'0 0.0
2017-Dec-04 04:58S 36°50' E 174°46'0 0.0
2017-Dec-04 04:28S 36°50' E 174°46'0 0.0
2017-Dec-04 03:52S 36°50' E 174°46'0 0.0
2017-Dec-04 03:28S 36°50' E 174°46'0 0.0
2017-Dec-04 02:58S 36°50' E 174°46'0 0.0
2017-Dec-04 02:22S 36°50' E 174°46'0 0.0
2017-Dec-04 01:58S 36°50' E 174°46'0 0.0
2017-Dec-04 01:28S 36°50' E 174°46'0 0.0
2017-Dec-04 00:58S 36°50' E 174°46'0 0.0
2017-Dec-04 00:28S 36°50' E 174°46'0 0.0
2017-Dec-03 23:58S 36°50' E 174°46'0 0.0
2017-Dec-03 23:22S 36°50' E 174°46'0 0.0
2017-Dec-03 22:58S 36°50' E 174°46'0 0.0
2017-Dec-03 22:28S 36°50' E 174°46'0 0.0
2017-Dec-03 21:58S 36°50' E 174°46'0 0.0
2017-Dec-03 21:28S 36°50' E 174°46'0 0.0
2017-Dec-03 20:58S 36°50' E 174°46'0 0.0
2017-Dec-03 20:28S 36°50' E 174°46'0 0.0
2017-Dec-03 19:58S 36°50' E 174°46'0 0.0
2017-Dec-03 19:28S 36°50' E 174°46'0 0.0
2017-Dec-03 18:58S 36°50' E 174°46'0 0.0
2017-Dec-03 18:28S 36°50' E 174°46'0 0.0
2017-Dec-03 17:58S 36°50' E 174°46'0 0.0
2017-Dec-03 17:28S 36°50' E 174°46'0 0.0
2017-Dec-03 16:58S 36°50' E 174°46'0 0.0
2017-Dec-03 16:30S 36°50' E 174°46'1 2.2
2017-Dec-03 16:00S 36°50' E 174°48'3 6.5
2017-Dec-03 15:30S 36°47' E 174°48'3 7.0
2017-Dec-03 15:00S 36°44' E 174°50'3 5.0
2017-Dec-03 14:30S 36°42' E 174°52'4 7.2
2017-Dec-03 14:00S 36°39' E 174°55'4 7.1
2017-Dec-03 13:30S 36°36' E 174°58'4 8.5
2017-Dec-03 13:00S 36°32' E 174°59'5 9.1
2017-Dec-03 12:30S 36°28' E 174°60'5 9.7
2017-Dec-03 12:00S 36°23' E 174°59'510.0
2017-Dec-03 11:30S 36°18' E 174°58'5 9.9
2017-Dec-03 11:00S 36°13' E 174°56'510.8
2017-Dec-03 10:30S 36°08' E 174°56'  

Dump ship's entire track history